createdAt,value
2019-05-19T00:01:01.187Z,3.60
2019-05-19T00:03:28.410Z,3.52
2019-05-19T00:05:55.395Z,3.37
2019-05-19T00:08:22.247Z,3.25
2019-05-19T00:10:49.485Z,3.33
2019-05-19T00:13:16.301Z,3.50
2019-05-19T00:15:43.736Z,3.10
2019-05-19T00:18:10.715Z,3.33
2019-05-19T00:20:37.680Z,3.45
2019-05-19T00:23:04.569Z,3.33
2019-05-19T00:25:33.088Z,3.62
2019-05-19T00:27:59.921Z,3.35
2019-05-19T00:30:27.226Z,3.10
2019-05-19T00:32:53.990Z,3.42
2019-05-19T00:35:21.176Z,3.58
2019-05-19T00:37:48.090Z,2.90
2019-05-19T00:40:17.886Z,2.85
2019-05-19T00:42:44.840Z,3.77
2019-05-19T00:45:12.624Z,3.40
2019-05-19T00:47:39.918Z,3.10
2019-05-19T00:50:16.567Z,3.17
2019-05-19T00:52:43.545Z,3.10
2019-05-19T00:55:10.712Z,3.37
2019-05-19T00:57:38.191Z,3.47
2019-05-19T01:00:07.601Z,3.60
2019-05-19T01:02:35.449Z,3.30
2019-05-19T01:05:07.120Z,3.47
2019-05-19T01:07:34.910Z,3.35
2019-05-19T01:10:07.180Z,3.80
2019-05-19T01:12:34.210Z,3.80
2019-05-19T01:15:01.492Z,3.60
2019-05-19T01:17:28.475Z,3.77
2019-05-19T01:19:56.376Z,3.50
2019-05-19T01:22:23.451Z,3.87
2019-05-19T01:24:50.735Z,3.45
2019-05-19T01:27:17.531Z,3.70
2019-05-19T01:29:44.681Z,3.55
2019-05-19T01:32:11.472Z,4.17
2019-05-19T01:34:38.368Z,4.10
2019-05-19T01:37:05.181Z,3.58
2019-05-19T01:39:32.225Z,3.40
2019-05-19T01:41:59.736Z,3.80
2019-05-19T01:44:26.880Z,3.70
2019-05-19T01:46:53.792Z,3.77
2019-05-19T01:49:20.741Z,3.72
2019-05-19T01:51:47.562Z,3.80
2019-05-19T01:54:16.723Z,3.55
2019-05-19T01:56:44.307Z,4.45
2019-05-19T01:59:11.196Z,4.60
2019-05-19T02:01:38.458Z,4.60
2019-05-19T02:04:05.410Z,4.55
2019-05-19T02:06:32.264Z,3.95
2019-05-19T02:08:59.141Z,4.28
2019-05-19T02:11:26.616Z,4.60
2019-05-19T02:13:53.470Z,4.17
2019-05-19T02:16:20.313Z,3.90
2019-05-19T02:18:47.509Z,4.53
2019-05-19T02:21:14.685Z,3.95
2019-05-19T02:23:42.105Z,4.12
2019-05-19T02:26:09.084Z,4.37
2019-05-19T02:28:35.991Z,3.87
2019-05-19T02:31:03.011Z,3.90
2019-05-19T02:33:30.117Z,4.20
2019-05-19T02:35:56.993Z,3.83
2019-05-19T02:38:23.726Z,4.35
2019-05-19T02:40:55.005Z,4.50
2019-05-19T02:43:23.701Z,4.45
2019-05-19T02:45:56.547Z,4.75
2019-05-19T02:48:28.751Z,4.40
2019-05-19T02:51:00.257Z,4.73
2019-05-19T02:53:32.845Z,4.62
2019-05-19T02:56:02.273Z,3.62
2019-05-19T02:58:31.029Z,4.22
2019-05-19T03:00:58.034Z,4.50
2019-05-19T03:03:24.940Z,4.40
2019-05-19T03:05:52.195Z,4.75
2019-05-19T03:08:19.121Z,4.97
2019-05-19T03:10:46.699Z,4.15
2019-05-19T03:13:13.670Z,4.70
2019-05-19T03:15:40.585Z,4.42
2019-05-19T03:18:08.890Z,4.92
2019-05-19T03:20:36.302Z,4.85
2019-05-19T03:23:03.235Z,5.08
2019-05-19T03:25:30.200Z,5.05
2019-05-19T03:27:57.244Z,5.40
2019-05-19T03:30:42.454Z,4.72
2019-05-19T03:33:11.410Z,4.75
2019-05-19T03:35:38.281Z,5.87
2019-05-19T03:38:05.301Z,6.35
2019-05-19T03:40:32.322Z,6.28
2019-05-19T03:42:59.424Z,6.00
2019-05-19T03:45:26.609Z,5.70
2019-05-19T03:47:53.621Z,5.92
2019-05-19T03:50:20.596Z,5.78
2019-05-19T03:52:47.632Z,5.50
2019-05-19T03:55:14.641Z,5.45
2019-05-19T03:57:41.732Z,5.62
2019-05-19T04:00:09.797Z,5.50
2019-05-19T04:02:36.697Z,5.72
2019-05-19T04:05:06.880Z,6.25
2019-05-19T04:07:33.943Z,5.47
2019-05-19T04:10:01.292Z,5.72
2019-05-19T04:12:28.370Z,6.10
2019-05-19T04:14:55.684Z,5.58
2019-05-19T04:17:22.728Z,6.10
2019-05-19T04:19:50.128Z,5.40
2019-05-19T04:22:17.309Z,6.08
2019-05-19T04:24:44.957Z,5.15
2019-05-19T04:27:11.884Z,5.53
2019-05-19T04:29:39.605Z,6.65
2019-05-19T04:32:06.771Z,6.28
2019-05-19T04:34:34.129Z,6.37
2019-05-19T04:37:01.532Z,7.40
2019-05-19T04:39:28.672Z,7.28
2019-05-19T04:41:55.467Z,7.22
2019-05-19T04:44:23.743Z,7.37
2019-05-19T04:46:50.851Z,7.53
2019-05-19T04:49:17.702Z,8.43
2019-05-19T04:51:45.076Z,7.70
2019-05-19T04:54:12.607Z,7.20
2019-05-19T04:56:39.422Z,6.97
2019-05-19T04:59:06.246Z,6.75
2019-05-19T05:01:33.602Z,7.72
2019-05-19T05:04:00.490Z,7.42
2019-05-19T05:06:27.359Z,7.80
2019-05-19T05:08:54.135Z,7.12
2019-05-19T05:11:21.217Z,7.03
2019-05-19T05:13:48.424Z,7.30
2019-05-19T05:16:15.244Z,8.30
2019-05-19T05:18:42.171Z,8.00
2019-05-19T05:21:09.340Z,7.08
2019-05-19T05:23:36.179Z,7.37
2019-05-19T05:26:03.622Z,8.63
2019-05-19T05:28:31.287Z,8.10
2019-05-19T05:30:58.514Z,7.83
2019-05-19T05:33:25.753Z,7.15
2019-05-19T05:35:52.505Z,6.90
2019-05-19T05:38:19.294Z,6.33
2019-05-19T05:40:46.139Z,7.05
2019-05-19T05:43:13.342Z,7.33
2019-05-19T05:45:40.084Z,7.42
2019-05-19T05:48:06.909Z,7.75
2019-05-19T05:50:34.387Z,7.00
2019-05-19T05:53:01.735Z,7.83
2019-05-19T05:55:28.899Z,7.17
2019-05-19T05:57:55.775Z,7.15
2019-05-19T06:00:22.939Z,7.10
2019-05-19T06:02:50.155Z,7.28
2019-05-19T06:05:16.979Z,6.62
2019-05-19T06:07:43.738Z,6.75
2019-05-19T06:10:11.147Z,6.95
2019-05-19T06:12:38.422Z,7.00
2019-05-19T06:15:05.839Z,7.35
2019-05-19T06:17:32.621Z,7.30
2019-05-19T06:19:59.418Z,7.20
2019-05-19T06:22:28.125Z,7.50
2019-05-19T06:24:58.859Z,7.30
2019-05-19T06:27:24.250Z,7.53
2019-05-19T06:29:51.460Z,7.37
2019-05-19T06:32:35.451Z,7.28
2019-05-19T06:35:03.479Z,7.70
2019-05-19T06:37:30.455Z,7.87
2019-05-19T06:39:57.542Z,8.15
2019-05-19T06:42:24.760Z,7.78
2019-05-19T06:44:51.951Z,8.33
2019-05-19T06:47:18.865Z,8.63
2019-05-19T06:49:45.815Z,8.28
2019-05-19T06:52:13.132Z,8.18
2019-05-19T06:54:39.934Z,8.88
2019-05-19T06:57:06.722Z,7.78
2019-05-19T06:59:34.193Z,7.58
2019-05-19T07:02:00.952Z,7.70
2019-05-19T07:04:30.027Z,7.25
2019-05-19T07:06:56.905Z,8.15
2019-05-19T07:09:23.738Z,7.53
2019-05-19T07:11:50.873Z,7.55
2019-05-19T07:14:17.714Z,7.40
2019-05-19T07:16:44.642Z,7.08
2019-05-19T07:19:14.873Z,7.42
2019-05-19T07:21:41.693Z,6.70
2019-05-19T07:24:08.651Z,6.85
2019-05-19T07:26:35.552Z,6.97
2019-05-19T07:29:02.539Z,6.37
2019-05-19T07:31:32.056Z,6.87
2019-05-19T07:33:58.885Z,5.95
2019-05-19T07:36:25.739Z,6.10
2019-05-19T07:38:52.657Z,6.33
2019-05-19T07:41:19.531Z,6.72
2019-05-19T07:43:46.543Z,6.75
2019-05-19T07:46:13.628Z,7.30
2019-05-19T07:48:40.865Z,6.60
2019-05-19T07:51:07.933Z,6.30
2019-05-19T07:53:42.550Z,6.03
2019-05-19T07:56:04.317Z,6.37
2019-05-19T07:58:31.218Z,4.78
2019-05-19T08:00:58.047Z,6.50
2019-05-19T08:03:24.985Z,5.05
2019-05-19T08:05:56.970Z,5.45
2019-05-19T08:08:23.297Z,4.92
2019-05-19T08:10:50.135Z,4.60
2019-05-19T08:13:16.962Z,4.50
2019-05-19T08:15:43.789Z,5.37
2019-05-19T08:18:12.509Z,4.83
2019-05-19T08:20:39.360Z,4.85
2019-05-19T08:23:06.269Z,4.65
2019-05-19T08:25:33.945Z,4.35
2019-05-19T08:28:08.655Z,4.95
2019-05-19T08:30:29.793Z,4.53
2019-05-19T08:32:56.666Z,4.05
2019-05-19T08:35:23.534Z,3.40
2019-05-19T08:37:50.599Z,4.15
2019-05-19T08:40:17.547Z,4.97
2019-05-19T08:42:44.478Z,4.83
2019-05-19T08:45:11.742Z,3.87
2019-05-19T08:47:38.515Z,4.35
2019-05-19T08:50:06.742Z,4.67
2019-05-19T08:52:33.583Z,4.40
2019-05-19T08:55:00.446Z,5.53
2019-05-19T08:57:27.249Z,5.33
2019-05-19T08:59:56.221Z,4.72
2019-05-19T09:02:23.144Z,4.75
2019-05-19T09:04:49.932Z,4.17
2019-05-19T09:07:17.214Z,4.65
2019-05-19T09:09:44.129Z,4.35
2019-05-19T09:12:11.288Z,4.53
2019-05-19T09:14:38.091Z,4.17
2019-05-19T09:17:05.128Z,4.50
2019-05-19T09:19:32.113Z,3.62
2019-05-19T09:22:01.720Z,4.20
2019-05-19T09:24:30.845Z,3.67
2019-05-19T09:26:57.519Z,3.83
2019-05-19T09:29:24.332Z,3.75
2019-05-19T09:31:51.315Z,4.05
2019-05-19T09:34:18.401Z,3.87
2019-05-19T09:36:45.585Z,3.37
2019-05-19T09:39:12.380Z,3.33
2019-05-19T09:41:39.219Z,3.55
2019-05-19T09:44:06.325Z,4.37
2019-05-19T09:46:33.154Z,3.52
2019-05-19T09:49:18.859Z,3.92
2019-05-19T09:51:47.754Z,3.05
2019-05-19T09:54:14.570Z,3.10
2019-05-19T09:56:41.373Z,3.72
2019-05-19T09:59:08.268Z,3.62
2019-05-19T10:01:35.100Z,3.35
2019-05-19T10:04:01.854Z,3.40
2019-05-19T10:06:29.643Z,3.05
2019-05-19T10:09:01.879Z,2.72
2019-05-19T10:11:59.345Z,3.30
2019-05-19T10:14:28.808Z,3.30
2019-05-19T10:16:55.808Z,3.65
2019-05-19T10:19:24.286Z,3.40
2019-05-19T10:21:51.282Z,3.85
2019-05-19T10:24:18.271Z,3.47
2019-05-19T10:26:45.410Z,3.22
2019-05-19T10:29:13.202Z,2.83
2019-05-19T10:31:40.188Z,2.72
2019-05-19T10:34:07.061Z,3.08
2019-05-19T10:36:34.346Z,2.75
2019-05-19T10:39:01.154Z,2.85
2019-05-19T10:41:28.187Z,3.27
2019-05-19T10:43:57.021Z,3.10
2019-05-19T10:46:24.612Z,2.62
2019-05-19T10:48:51.955Z,3.40
2019-05-19T10:51:18.975Z,3.08
2019-05-19T10:53:45.803Z,3.30
2019-05-19T10:56:12.885Z,2.92
2019-05-19T10:58:41.005Z,2.90
2019-05-19T11:01:08.432Z,3.00
2019-05-19T11:03:35.324Z,2.85
2019-05-19T11:06:02.344Z,2.90
2019-05-19T11:08:29.475Z,3.35
2019-05-19T11:10:59.218Z,3.02
2019-05-19T11:13:26.483Z,3.35
2019-05-19T11:15:53.262Z,3.12
2019-05-19T11:18:20.467Z,2.58
2019-05-19T11:20:47.568Z,2.62
2019-05-19T11:23:14.411Z,2.47
2019-05-19T11:25:51.110Z,2.70
2019-05-19T11:28:10.067Z,2.87
2019-05-19T11:30:38.126Z,2.72
2019-05-19T11:33:07.307Z,2.50
2019-05-19T11:35:34.242Z,2.60
2019-05-19T11:38:01.564Z,2.58
2019-05-19T11:40:28.311Z,2.80
2019-05-19T11:42:55.249Z,2.50
2019-05-19T11:45:22.231Z,2.55
2019-05-19T11:47:49.088Z,2.60
2019-05-19T11:50:17.501Z,2.60
2019-05-19T11:52:44.332Z,2.65
2019-05-19T11:55:14.311Z,2.67
2019-05-19T11:57:41.128Z,2.67
2019-05-19T12:00:11.891Z,2.85
2019-05-19T12:02:39.194Z,3.42
2019-05-19T12:05:08.160Z,3.70
2019-05-19T12:07:35.001Z,3.10
2019-05-19T12:10:03.974Z,3.22
2019-05-19T12:12:30.926Z,3.37
2019-05-19T12:14:57.987Z,2.95
2019-05-19T12:17:24.838Z,3.27
2019-05-19T12:19:51.775Z,2.70
2019-05-19T12:22:18.799Z,3.22
2019-05-19T12:24:45.717Z,2.75
2019-05-19T12:27:12.507Z,2.90
2019-05-19T12:29:39.282Z,3.33
2019-05-19T12:32:06.545Z,3.10
2019-05-19T12:34:34.023Z,3.00
2019-05-19T12:37:00.900Z,3.47
2019-05-19T12:39:28.337Z,4.10
2019-05-19T12:41:55.516Z,3.62
2019-05-19T12:44:22.287Z,3.55
2019-05-19T12:46:49.780Z,3.25
2019-05-19T12:49:16.593Z,3.70
2019-05-19T12:51:43.385Z,3.55
2019-05-19T12:54:10.209Z,2.80
2019-05-19T12:56:40.127Z,3.17
2019-05-19T12:59:05.953Z,3.70
2019-05-19T13:01:32.927Z,3.75
2019-05-19T13:04:00.242Z,4.45
2019-05-19T13:06:27.219Z,3.65
2019-05-19T13:08:54.291Z,4.15
2019-05-19T13:11:21.175Z,3.98
2019-05-19T13:13:47.943Z,3.50
2019-05-19T13:16:14.842Z,3.77
2019-05-19T13:18:41.589Z,3.58
2019-05-19T13:21:08.445Z,4.30
2019-05-19T13:23:35.188Z,4.10
2019-05-19T13:26:02.280Z,4.22
2019-05-19T13:28:29.020Z,4.30
2019-05-19T13:30:55.994Z,4.08
2019-05-19T13:33:22.825Z,4.75
2019-05-19T13:35:49.706Z,3.80
2019-05-19T13:38:16.471Z,3.72
2019-05-19T13:40:43.386Z,4.25
2019-05-19T13:43:10.145Z,4.00
2019-05-19T13:45:36.922Z,3.75
2019-05-19T13:48:03.820Z,4.30
2019-05-19T13:50:30.809Z,4.15
2019-05-19T13:52:57.638Z,4.58
2019-05-19T13:55:24.484Z,4.47
2019-05-19T13:57:51.487Z,4.40
2019-05-19T14:00:18.549Z,4.90
2019-05-19T14:02:45.355Z,4.05
2019-05-19T14:05:12.401Z,3.05
2019-05-19T14:07:39.282Z,3.90
2019-05-19T14:10:07.480Z,4.42
2019-05-19T14:12:34.254Z,4.20
2019-05-19T14:15:04.140Z,3.95
2019-05-19T14:17:32.906Z,4.42
2019-05-19T14:19:59.911Z,4.30
2019-05-19T14:22:28.110Z,4.37
2019-05-19T14:24:55.299Z,3.92
2019-05-19T14:27:30.427Z,4.08
2019-05-19T14:29:51.312Z,4.40
2019-05-19T14:32:20.131Z,3.83
2019-05-19T14:34:47.754Z,4.60
2019-05-19T14:37:14.631Z,4.15
2019-05-19T14:39:41.639Z,4.55
2019-05-19T14:42:11.164Z,4.20
2019-05-19T14:44:38.313Z,4.20
2019-05-19T14:47:05.240Z,4.28
2019-05-19T14:49:32.426Z,5.20
2019-05-19T14:51:59.335Z,5.15
2019-05-19T14:54:26.102Z,4.60
2019-05-19T14:56:52.946Z,4.53
2019-05-19T14:59:19.895Z,4.00
2019-05-19T15:01:46.945Z,4.72
2019-05-19T15:04:13.812Z,3.95
2019-05-19T15:06:40.715Z,4.35
2019-05-19T15:09:07.871Z,4.53
2019-05-19T15:11:35.174Z,4.10
2019-05-19T15:14:02.331Z,4.00
2019-05-19T15:16:29.720Z,4.92
2019-05-19T15:18:56.835Z,4.75
2019-05-19T15:21:23.789Z,3.87
2019-05-19T15:23:50.679Z,3.95
2019-05-19T15:26:17.703Z,4.00
2019-05-19T15:28:46.088Z,4.45
2019-05-19T15:31:13.837Z,4.40
2019-05-19T15:33:40.787Z,4.40
2019-05-19T15:36:07.918Z,4.70
2019-05-19T15:38:36.916Z,4.30
2019-05-19T15:41:04.382Z,4.33
2019-05-19T15:43:31.344Z,4.72
2019-05-19T15:46:00.915Z,4.70
2019-05-19T15:48:27.648Z,4.15
2019-05-19T15:50:54.799Z,4.85
2019-05-19T15:53:24.138Z,4.70
2019-05-19T15:55:51.201Z,4.58
2019-05-19T15:58:18.499Z,4.60
2019-05-19T16:00:45.251Z,4.40
2019-05-19T16:03:12.254Z,4.50
2019-05-19T16:05:39.003Z,3.70
2019-05-19T16:08:05.922Z,4.42
2019-05-19T16:10:32.719Z,5.10
2019-05-19T16:12:59.749Z,4.60
2019-05-19T16:15:26.477Z,4.65
2019-05-19T16:17:54.798Z,4.42
2019-05-19T16:20:21.670Z,3.72
2019-05-19T16:22:48.470Z,4.20
2019-05-19T16:25:15.514Z,4.00
2019-05-19T16:27:42.495Z,4.47
2019-05-19T16:30:14.253Z,3.95
2019-05-19T16:32:41.625Z,4.00
2019-05-19T16:35:10.053Z,4.40
2019-05-19T16:37:37.511Z,4.22
2019-05-19T16:40:05.592Z,4.05
2019-05-19T16:42:32.514Z,4.30
2019-05-19T16:44:59.315Z,4.50
2019-05-19T16:47:26.202Z,3.92
2019-05-19T16:49:54.515Z,4.20
2019-05-19T16:52:21.571Z,5.22
2019-05-19T16:55:07.032Z,4.28
2019-05-19T16:57:34.191Z,5.67
2019-05-19T17:00:01.374Z,4.37
2019-05-19T17:02:28.520Z,3.72
2019-05-19T17:04:55.665Z,3.90
2019-05-19T17:07:22.449Z,4.00
2019-05-19T17:09:49.310Z,4.70
2019-05-19T17:12:16.367Z,4.30
2019-05-19T17:14:43.200Z,4.50
2019-05-19T17:17:10.405Z,4.10
2019-05-19T17:19:37.187Z,4.12
2019-05-19T17:22:04.151Z,4.30
2019-05-19T17:24:31.091Z,4.10
2019-05-19T17:26:57.975Z,4.20
2019-05-19T17:29:24.975Z,4.65
2019-05-19T17:32:05.313Z,4.15
2019-05-19T17:34:22.204Z,3.65
2019-05-19T17:36:49.010Z,5.08
2019-05-19T17:39:16.244Z,4.55
2019-05-19T17:41:43.346Z,4.87
2019-05-19T17:44:10.183Z,3.72
2019-05-19T17:46:37.206Z,3.90
2019-05-19T17:49:04.113Z,3.67
2019-05-19T17:51:31.187Z,4.35
2019-05-19T17:53:58.999Z,4.65
2019-05-19T17:56:27.634Z,4.03
2019-05-19T17:58:55.406Z,4.47
2019-05-19T18:01:22.262Z,3.70
2019-05-19T18:03:50.419Z,3.95
2019-05-19T18:06:19.251Z,3.70
2019-05-19T18:08:56.970Z,4.83
2019-05-19T18:11:24.097Z,4.40
2019-05-19T18:13:51.238Z,4.35
2019-05-19T18:16:18.257Z,5.40
2019-05-19T18:18:45.441Z,6.37
2019-05-19T18:21:12.240Z,4.30
2019-05-19T18:23:39.046Z,5.55
2019-05-19T18:26:07.394Z,4.22
2019-05-19T18:28:34.341Z,3.95
2019-05-19T18:31:01.246Z,3.62
2019-05-19T18:33:28.014Z,3.70
2019-05-19T18:35:54.910Z,3.50
2019-05-19T18:38:21.713Z,3.85
2019-05-19T18:40:48.683Z,3.47
2019-05-19T18:43:15.849Z,3.67
2019-05-19T18:45:42.768Z,4.08
2019-05-19T18:48:09.893Z,4.05
2019-05-19T18:50:37.220Z,4.92
2019-05-19T18:53:04.730Z,4.30
2019-05-19T18:55:31.879Z,3.85
2019-05-19T18:57:58.683Z,3.98
2019-05-19T19:00:35.272Z,3.80
2019-05-19T19:03:03.858Z,4.00
2019-05-19T19:05:31.345Z,3.42
2019-05-19T19:07:58.339Z,4.53
2019-05-19T19:10:25.573Z,3.95
2019-05-19T19:12:52.441Z,4.20
2019-05-19T19:15:24.550Z,4.10
2019-05-19T19:17:51.800Z,4.20
2019-05-19T19:20:18.987Z,3.92
2019-05-19T19:22:46.043Z,3.98
2019-05-19T19:25:13.323Z,4.30
2019-05-19T19:27:40.271Z,3.95
2019-05-19T19:30:08.179Z,4.12
2019-05-19T19:32:35.088Z,4.25
2019-05-19T19:35:06.258Z,3.85
2019-05-19T19:37:33.302Z,4.00
2019-05-19T19:40:04.711Z,4.20
2019-05-19T19:42:33.986Z,4.08
2019-05-19T19:45:02.335Z,3.75
2019-05-19T19:47:29.870Z,4.33
2019-05-19T19:49:57.159Z,3.83
2019-05-19T19:52:24.064Z,4.08
2019-05-19T19:54:51.659Z,4.10
2019-05-19T19:57:18.536Z,5.00
2019-05-19T19:59:47.368Z,4.62
2019-05-19T20:02:14.340Z,4.62
2019-05-19T20:04:41.347Z,4.08
2019-05-19T20:07:08.451Z,3.80
2019-05-19T20:09:35.725Z,4.00
2019-05-19T20:12:02.929Z,4.12
2019-05-19T20:14:30.535Z,4.10
2019-05-19T20:16:57.491Z,4.35
2019-05-19T20:19:24.431Z,4.17
2019-05-19T20:21:51.497Z,4.15
2019-05-19T20:24:18.387Z,4.12
2019-05-19T20:26:48.493Z,3.98
2019-05-19T20:29:15.681Z,3.70
2019-05-19T20:31:42.667Z,4.10
2019-05-19T20:34:09.950Z,3.70
2019-05-19T20:36:37.013Z,4.10
2019-05-19T20:39:05.231Z,4.45
2019-05-19T20:41:32.079Z,4.70
2019-05-19T20:43:58.883Z,4.58
2019-05-19T20:46:26.189Z,4.20
2019-05-19T20:48:53.109Z,4.50
2019-05-19T20:51:20.660Z,4.42
2019-05-19T20:53:49.050Z,4.47
2019-05-19T20:56:15.966Z,4.67
2019-05-19T20:58:42.832Z,4.12
2019-05-19T21:01:09.858Z,4.12
2019-05-19T21:03:36.681Z,4.08
2019-05-19T21:06:04.035Z,4.33
2019-05-19T21:08:34.149Z,4.20
2019-05-19T21:11:03.121Z,4.22
2019-05-19T21:13:29.957Z,3.72
2019-05-19T21:15:57.346Z,3.95
2019-05-19T21:18:24.594Z,3.98
2019-05-19T21:20:51.602Z,3.67
2019-05-19T21:23:18.685Z,3.70
2019-05-19T21:25:46.648Z,3.85
2019-05-19T21:28:13.927Z,3.67
2019-05-19T21:30:41.197Z,3.70
2019-05-19T21:33:08.154Z,3.45
2019-05-19T21:35:35.905Z,3.42
2019-05-19T21:38:03.242Z,3.70
2019-05-19T21:40:30.206Z,3.15
2019-05-19T21:42:56.960Z,3.67
2019-05-19T21:45:23.757Z,3.15
2019-05-19T21:47:50.698Z,3.12
2019-05-19T21:50:17.858Z,2.85
2019-05-19T21:52:44.773Z,3.30
2019-05-19T21:55:11.892Z,2.67
2019-05-19T21:57:38.649Z,2.98
2019-05-19T22:00:10.645Z,3.08
2019-05-19T22:02:38.940Z,2.80
2019-05-19T22:05:06.513Z,2.75
2019-05-19T22:07:52.620Z,3.12
2019-05-19T22:10:19.441Z,2.90
2019-05-19T22:12:46.224Z,2.90
2019-05-19T22:15:14.011Z,2.50
2019-05-19T22:17:42.926Z,2.85
2019-05-19T22:20:09.928Z,2.45
2019-05-19T22:22:36.793Z,2.72
2019-05-19T22:25:06.200Z,2.83
2019-05-19T22:27:33.181Z,2.40
2019-05-19T22:30:00.119Z,2.58
2019-05-19T22:32:27.067Z,2.65
2019-05-19T22:34:54.321Z,2.50
2019-05-19T22:37:21.479Z,2.52
2019-05-19T22:39:48.299Z,2.45
2019-05-19T22:42:15.502Z,2.58
2019-05-19T22:44:42.420Z,2.70
2019-05-19T22:47:09.355Z,2.80
2019-05-19T22:49:36.710Z,2.47
2019-05-19T22:52:03.588Z,2.67
2019-05-19T22:54:30.355Z,2.70
2019-05-19T22:56:57.689Z,2.58
2019-05-19T22:59:24.483Z,2.65
2019-05-19T23:01:52.262Z,2.70
2019-05-19T23:04:22.347Z,2.72
2019-05-19T23:06:49.781Z,2.80
2019-05-19T23:09:16.673Z,3.17
2019-05-19T23:11:43.579Z,3.00
2019-05-19T23:14:10.841Z,3.10
2019-05-19T23:16:37.775Z,3.10
2019-05-19T23:19:04.621Z,3.50
2019-05-19T23:21:34.409Z,3.12
2019-05-19T23:24:00.430Z,2.67
2019-05-19T23:26:27.209Z,2.77
2019-05-19T23:28:54.036Z,2.35
2019-05-19T23:31:21.014Z,2.60
2019-05-19T23:33:47.830Z,2.75
2019-05-19T23:36:14.838Z,2.92
2019-05-19T23:38:47.165Z,2.62
2019-05-19T23:41:14.420Z,2.30
2019-05-19T23:43:41.312Z,2.62
2019-05-19T23:46:08.211Z,2.20
2019-05-19T23:48:35.267Z,2.42
2019-05-19T23:51:02.280Z,2.20
2019-05-19T23:53:29.146Z,1.90
2019-05-19T23:55:56.132Z,1.95
2019-05-19T23:58:23.176Z,1.67
